Time;durP1;ratioP1;P1;durP2;ratioP2;P2;SDS_P1;SDS_P2;PMS_P1;PMS_P2;Temp;Humidity;BMP_temperature;BMP_pressure;BME280_temperature;BME280_humidity;BME280_pressure;Samples;Min_cycle;Max_cycle;Signal;HPM_P1;HPM_P2
2022/06/04 00:00:37;;;;;;;9.43;8.53;;;;;;;17.73;77.84;101380.07;1708592;84;20882;-89
2022/06/04 00:03:06;;;;;;;8.95;8.15;;;;;;;17.70;77.86;101373.69;1708677;84;21040;-88
2022/06/04 00:05:36;;;;;;;9.30;8.50;;;;;;;17.68;77.94;101369.47;1708590;84;21277;-86
2022/06/04 00:08:04;;;;;;;9.23;8.18;;;;;;;17.68;77.97;101369.47;1708264;84;20902;-85
2022/06/04 00:16:15;;;;;;;8.63;7.72;;;;;;;17.61;77.91;101372.59;1708656;83;20894;-91
2022/06/04 00:18:43;;;;;;;9.58;8.48;;;;;;;17.59;77.98;101374.52;1708637;83;21199;-89
2022/06/04 00:21:11;;;;;;;11.05;7.53;;;;;;;17.57;77.99;101368.48;1722968;82;20890;-89
2022/06/04 00:23:38;;;;;;;8.33;7.60;;;;;;;17.57;77.89;101370.30;1734708;82;20992;-88
2022/06/04 00:26:07;;;;;;;9.63;8.83;;;;;;;17.54;77.91;101366.54;1734850;82;20948;-87
2022/06/04 00:28:34;;;;;;;9.83;8.03;;;;;;;17.53;78.12;101378.12;1734956;81;20937;-90
2022/06/04 00:31:01;;;;;;;8.73;7.92;;;;;;;17.52;78.54;101375.97;1734709;82;21130;-89
2022/06/04 00:33:27;;;;;;;9.30;7.55;;;;;;;17.51;78.49;101374.25;1734754;82;20987;-90
2022/06/04 00:35:56;;;;;;;7.85;6.95;;;;;;;17.51;78.62;101374.75;1734595;82;20964;-90
2022/06/04 00:38:25;;;;;;;8.85;7.85;;;;;;;17.48;78.42;101369.69;1735271;82;20945;-89
2022/06/04 00:41:23;;;;;;;8.78;7.97;;;;;;;17.46;78.38;101367.64;1735696;81;21027;-90
2022/06/04 00:44:07;;;;;;;8.55;7.75;;;;;;;17.44;78.31;101366.91;1734829;81;21794;-89
2022/06/04 00:46:57;;;;;;;8.28;7.55;;;;;;;17.38;78.33;101360.25;1734286;82;20941;-90
2022/06/04 00:49:25;;;;;;;9.03;8.18;;;;;;;17.36;78.62;101361.72;1734638;81;20897;-90
2022/06/04 00:51:52;;;;;;;8.28;7.45;;;;;;;17.35;78.74;101358.69;1734600;82;20944;-89
2022/06/04 00:54:20;;;;;;;8.20;7.40;;;;;;;17.34;78.92;101354.36;1734713;81;21433;-89
2022/06/04 00:57:11;;;;;;;8.38;7.70;;;;;;;17.31;78.73;101353.25;1734357;81;21489;-89
2022/06/04 01:00:00;;;;;;;8.98;8.25;;;;;;;17.30;78.82;101358.70;1734522;81;21039;-88
2022/06/04 01:03:01;;;;;;;8.48;7.47;;;;;;;17.27;79.04;101365.05;1734608;81;21019;-88
2022/06/04 01:06:13;;;;;;;8.05;7.35;;;;;;;17.25;79.27;101362.99;1734610;82;20960;-89
2022/06/04 01:09:16;;;;;;;8.38;7.58;;;;;;;17.22;79.11;101360.59;1734702;82;20905;-89
2022/06/04 01:12:12;;;;;;;9.00;8.10;;;;;;;17.20;79.31;101354.56;1734957;81;21181;-88
2022/06/04 01:15:11;;;;;;;8.40;7.58;;;;;;;17.16;79.37;101357.94;1734293;82;20999;-86
2022/06/04 01:18:02;;;;;;;10.03;8.40;;;;;;;17.13;79.47;101345.39;1734198;81;20952;-89
2022/06/04 01:20:37;;;;;;;8.75;7.70;;;;;;;17.11;79.59;101337.55;1730775;81;21081;-88
2022/06/04 01:23:25;;;;;;;8.48;7.80;;;;;;;17.08;79.37;101329.00;1708598;83;20950;-89
2022/06/04 01:26:04;;;;;;;9.15;8.08;;;;;;;17.06;79.45;101327.78;1708982;84;21121;-89
2022/06/04 01:28:31;;;;;;;9.20;8.30;;;;;;;17.04;79.70;101327.05;1708777;83;20993;-90
2022/06/04 01:31:03;;;;;;;10.55;8.45;;;;;;;17.00;79.46;101326.92;1708670;84;20969;-90
2022/06/04 01:33:35;;;;;;;9.13;8.23;;;;;;;16.97;79.47;101325.84;1708637;83;20989;-89
2022/06/04 01:36:29;;;;;;;9.75;8.43;;;;;;;16.95;79.77;101323.30;1708937;84;21321;-90
2022/06/04 01:39:01;;;;;;;9.25;8.53;;;;;;;16.93;79.94;101325.21;1709089;83;21116;-89
2022/06/04 01:41:56;;;;;;;9.05;8.25;;;;;;;16.91;80.14;101325.81;1708905;83;20910;-89
2022/06/04 01:44:33;;;;;;;8.83;8.13;;;;;;;16.89;80.35;101326.41;1709103;84;20910;-90
2022/06/04 01:47:04;;;;;;;10.08;9.18;;;;;;;16.86;80.45;101329.30;1708779;84;20965;-89
2022/06/04 01:49:44;;;;;;;8.73;7.92;;;;;;;16.83;80.59;101332.64;1708740;84;20942;-90
2022/06/04 01:52:17;;;;;;;9.60;8.70;;;;;;;16.79;80.76;101334.66;1708545;83;21125;-89
2022/06/04 01:54:59;;;;;;;8.73;7.90;;;;;;;16.75;80.92;101339.33;1708668;84;20968;-90
2022/06/04 01:58:06;;;;;;;9.03;8.13;;;;;;;16.72;81.07;101335.59;1708695;84;21044;-89
2022/06/04 02:00:41;;;;;;;8.33;7.62;;;;;;;16.70;81.18;101333.55;1709031;83;20953;-89
2022/06/04 02:03:30;;;;;;;8.90;7.50;;;;;;;16.67;81.19;101328.45;1709506;83;21004;-90
2022/06/04 02:06:11;;;;;;;9.50;7.95;;;;;;;16.65;81.21;101337.48;1708649;84;21741;-89
2022/06/04 02:08:52;;;;;;;8.68;7.92;;;;;;;16.63;81.31;101333.64;1708448;84;21001;-89
2022/06/04 02:11:21;;;;;;;9.53;7.20;;;;;;;16.64;81.41;101331.34;1701855;84;20966;-89
2022/06/04 02:13:51;;;;;;;8.03;7.40;;;;;;;16.62;81.45;101328.45;1708415;84;20977;-90
2022/06/04 02:16:30;;;;;;;7.75;7.05;;;;;;;16.61;81.49;101328.94;1708859;84;20961;-89
2022/06/04 02:18:58;;;;;;;8.23;7.42;;;;;;;16.60;81.30;101325.06;1708500;84;21482;-88
2022/06/04 02:21:25;;;;;;;7.55;6.47;;;;;;;16.59;80.96;101325.55;1718748;82;20909;-89
2022/06/04 02:23:51;;;;;;;8.45;7.03;;;;;;;16.61;80.63;101327.61;1734530;81;20881;-88
2022/06/04 02:26:20;;;;;;;7.65;6.90;;;;;;;16.64;80.37;101322.56;1734441;82;20968;-89
2022/06/04 02:28:48;;;;;;;7.25;6.55;;;;;;;16.65;79.95;101328.20;1734413;82;20988;-88
2022/06/04 02:31:46;;;;;;;7.25;6.55;;;;;;;16.66;79.62;101331.23;1734271;81;21132;-89
2022/06/04 02:34:30;;;;;;;8.25;6.85;;;;;;;16.67;79.40;101333.75;1734475;81;20873;-89
2022/06/04 02:37:26;;;;;;;7.00;6.40;;;;;;;16.69;79.26;101337.62;1734784;82;21195;-88
2022/06/04 02:40:07;;;;;;;9.20;6.95;;;;;;;16.71;79.06;101329.92;1734686;82;20972;-89
2022/06/04 02:42:57;;;;;;;7.78;7.10;;;;;;;16.73;78.70;101329.33;1735070;82;20917;-89
2022/06/04 02:45:30;;;;;;;7.17;6.47;;;;;;;16.76;78.62;101329.12;1734555;82;21132;-88
2022/06/04 02:48:09;;;;;;;6.80;6.17;;;;;;;16.77;78.85;101328.14;1734970;82;21035;-89
2022/06/04 02:50:50;;;;;;;7.47;6.85;;;;;;;16.78;78.73;101328.53;1734327;82;20897;-89
2022/06/04 02:53:17;;;;;;;6.58;5.53;;;;;;;16.82;78.51;101336.27;1734761;82;21190;-90
2022/06/04 02:56:01;;;;;;;6.10;5.50;;;;;;;16.80;77.97;101327.58;1734191;82;20877;-87
2022/06/04 02:58:28;;;;;;;6.95;5.53;;;;;;;16.80;77.75;101325.77;1733527;82;21212;-89
2022/06/04 03:00:56;;;;;;;7.17;5.90;;;;;;;16.79;77.43;101324.06;1734634;81;21453;-88
2022/06/04 03:03:24;;;;;;;6.40;5.80;;;;;;;16.79;77.16;101325.39;1734431;82;20901;-87
2022/06/04 03:05:57;;;;;;;8.80;5.40;;;;;;;16.80;77.06;101325.77;1734526;81;21058;-88
2022/06/04 03:08:26;;;;;;;5.60;5.10;;;;;;;16.81;76.81;101327.48;1735266;81;20841;-88
2022/06/04 03:10:53;;;;;;;6.10;5.42;;;;;;;16.82;76.61;101328.31;1733643;82;21148;-87
2022/06/04 03:13:20;;;;;;;5.50;5.10;;;;;;;16.85;76.52;101321.45;1734587;82;20909;-88
2022/06/04 03:15:47;;;;;;;6.15;4.97;;;;;;;16.87;76.21;101322.19;1734948;81;21043;-90
2022/06/04 03:18:15;;;;;;;5.70;5.20;;;;;;;16.87;76.06;101307.61;1736463;81;20874;-88
2022/06/04 03:20:42;;;;;;;7.87;4.92;;;;;;;16.91;75.87;101310.40;1736709;81;20917;-89
2022/06/04 03:23:08;;;;;;;5.03;4.62;;;;;;;16.93;75.57;101313.29;1736686;81;21066;-88
2022/06/04 03:25:37;;;;;;;5.62;5.15;;;;;;;16.94;75.45;101309.70;1736648;81;20835;-87
2022/06/04 03:28:04;;;;;;;5.60;5.15;;;;;;;16.97;75.30;101308.13;1736836;81;21069;-90
2022/06/04 03:30:31;;;;;;;4.90;4.58;;;;;;;16.99;74.94;101310.67;1736806;81;20981;-88
2022/06/04 03:32:58;;;;;;;7.95;4.60;;;;;;;16.98;74.87;101300.56;1737149;81;21027;-88
2022/06/04 03:35:25;;;;;;;5.12;4.62;;;;;;;17.03;75.15;101306.83;1736826;81;21026;-87
2022/06/04 03:37:51;;;;;;;5.42;4.95;;;;;;;17.10;74.99;101298.77;1737206;81;20894;-87
2022/06/04 03:40:18;;;;;;;4.53;4.12;;;;;;;17.15;74.51;101303.71;1736913;81;20964;-89
2022/06/04 03:42:46;;;;;;;6.35;4.95;;;;;;;17.18;74.51;101304.79;1736451;81;21031;-91
2022/06/04 03:45:14;;;;;;;4.85;4.40;;;;;;;17.25;74.38;101307.81;1734883;82;21378;-90
2022/06/04 03:47:41;;;;;;;5.12;4.60;;;;;;;17.29;74.18;101307.95;1735290;82;21108;-90
2022/06/04 03:50:13;;;;;;;4.55;4.20;;;;;;;17.34;73.89;101310.62;1734682;81;20877;-91
2022/06/04 03:54:00;;;;;;;4.92;3.90;;;;;;;17.44;73.45;101304.59;1855291;77;22361;-90
2022/06/04 03:56:26;;;;;;;5.40;4.60;;;;;;;17.42;73.13;101302.05;1823084;78;20946;-90
2022/06/04 03:58:53;;;;;;;5.25;4.00;;;;;;;17.49;73.18;101307.72;1823057;78;21213;-88
2022/06/04 04:01:26;;;;;;;4.83;3.98;;;;;;;17.54;72.95;101302.43;1822989;78;20907;-88
2022/06/04 04:03:52;;;;;;;4.75;3.58;;;;;;;17.61;72.82;101301.47;1823455;78;21345;-89
2022/06/04 04:06:23;;;;;;;5.37;4.65;;;;;;;17.70;72.99;101301.22;1823416;78;20896;-88
2022/06/04 04:08:52;;;;;;;6.87;4.45;;;;;;;17.84;72.93;101304.13;1824841;78;20852;-88
2022/06/04 04:11:21;;;;;;;4.22;3.87;;;;;;;18.10;72.45;101308.19;1824186;78;21189;-90
2022/06/04 04:13:48;;;;;;;5.47;4.35;;;;;;;18.54;71.96;101302.84;1823058;78;20911;-89
2022/06/04 04:16:15;;;;;;;4.92;3.80;;;;;;;19.04;70.42;101300.46;1822960;78;21209;-89
2022/06/04 04:18:45;;;;;;;10.40;3.37;;;;;;;19.55;68.67;101305.42;1822731;78;20852;-91
2022/06/04 04:21:16;;;;;;;4.45;3.60;;;;;;;20.08;66.69;101300.70;1822991;78;20919;-86
2022/06/04 04:23:43;;;;;;;3.92;3.62;;;;;;;20.58;65.30;101305.12;1823083;78;21259;-88
2022/06/04 04:26:12;;;;;;;4.80;3.77;;;;;;;21.08;63.73;101297.43;1822868;78;20872;-89
2022/06/04 04:28:40;;;;;;;4.55;3.62;;;;;;;21.56;62.36;101296.44;1822974;78;21349;-88
2022/06/04 04:31:13;;;;;;;8.03;4.12;;;;;;;22.06;61.13;101296.05;1822590;78;20856;-88
2022/06/04 04:33:39;;;;;;;3.50;3.22;;;;;;;22.48;59.02;101290.64;1822740;78;20880;-88
2022/06/04 04:36:07;;;;;;;4.22;3.83;;;;;;;22.79;57.74;101285.72;1822880;78;21208;-90
2022/06/04 04:38:35;;;;;;;4.55;3.70;;;;;;;23.06;57.30;101284.77;1822805;78;20967;-88
2022/06/04 04:41:02;;;;;;;3.15;2.95;;;;;;;23.49;56.37;101286.99;1823044;78;20852;-89
2022/06/04 04:43:29;;;;;;;3.33;3.10;;;;;;;23.90;55.46;101287.20;1822962;78;20904;-88
2022/06/04 04:46:03;;;;;;;4.33;3.90;;;;;;;24.28;54.73;101288.95;1822844;78;21495;-88
2022/06/04 04:48:30;;;;;;;3.65;3.30;;;;;;;24.57;53.27;101281.80;1822884;78;21138;-89
2022/06/04 04:50:59;;;;;;;5.67;3.37;;;;;;;24.79;51.96;101276.25;1822790;78;20943;-88
2022/06/04 04:53:27;;;;;;;4.20;3.75;;;;;;;24.95;51.47;101275.39;1822689;78;20883;-89
2022/06/04 04:55:53;;;;;;;3.60;3.30;;;;;;;25.19;51.04;101273.67;1822725;78;20942;-88
2022/06/04 04:58:21;;;;;;;3.37;3.10;;;;;;;25.47;50.22;101276.77;1822804;78;20907;-89
2022/06/04 05:00:48;;;;;;;4.15;3.30;;;;;;;25.70;49.41;101270.63;1822662;78;21285;-88
2022/06/04 05:03:15;;;;;;;5.08;3.08;;;;;;;25.88;48.84;101277.98;1822445;78;21526;-88
2022/06/04 05:05:41;;;;;;;3.37;2.70;;;;;;;26.12;48.73;101270.75;1822058;78;20911;-88
2022/06/04 05:08:08;;;;;;;3.83;3.30;;;;;;;26.39;48.46;101272.06;1821978;78;21361;-86
2022/06/04 05:10:35;;;;;;;4.90;3.30;;;;;;;26.58;47.26;101277.50;1822059;78;20872;-86
2022/06/04 05:13:01;;;;;;;4.08;3.12;;;;;;;26.65;46.68;101268.51;1822020;78;21401;-91
2022/06/04 05:15:29;;;;;;;4.20;3.10;;;;;;;26.70;46.56;101265.27;1822123;78;20836;-87
2022/06/04 05:17:56;;;;;;;5.30;3.02;;;;;;;26.89;46.86;101266.62;1822053;78;20978;-90
2022/06/04 05:20:22;;;;;;;5.20;2.95;;;;;;;27.15;46.07;101262.14;1821905;78;20848;-90
2022/06/04 05:22:49;;;;;;;4.78;3.50;;;;;;;27.37;45.89;101257.71;1822489;78;20927;-90
2022/06/04 05:25:15;;;;;;;2.75;2.47;;;;;;;27.62;45.56;101257.39;1822132;78;21982;-88
2022/06/04 05:27:43;;;;;;;5.62;2.65;;;;;;;27.94;45.14;101253.94;1821933;78;20828;-89
2022/06/04 05:30:12;;;;;;;3.67;2.85;;;;;;;28.25;43.99;101256.33;1821972;78;20863;-88
2022/06/04 05:32:38;;;;;;;3.25;2.77;;;;;;;28.36;43.31;101261.72;1821932;78;20970;-89
2022/06/04 05:35:05;;;;;;;14.40;3.40;;;;;;;28.47;43.58;101256.66;1822585;78;21051;-88
2022/06/04 05:37:32;;;;;;;6.00;2.70;;;;;;;28.65;42.91;101252.13;1821959;78;21123;-87
2022/06/04 05:39:59;;;;;;;2.60;2.50;;;;;;;28.73;42.91;101262.80;1821851;78;21370;-89
2022/06/04 05:42:25;;;;;;;4.78;2.90;;;;;;;28.93;42.61;101258.05;1822010;78;21421;-89
2022/06/04 05:44:52;;;;;;;3.27;2.85;;;;;;;29.17;42.29;101262.19;1821945;78;20971;-88
2022/06/04 05:47:19;;;;;;;4.55;2.47;;;;;;;29.43;41.41;101257.41;1821960;78;20908;-88
2022/06/04 05:49:47;;;;;;;4.40;3.20;;;;;;;29.47;41.50;101260.03;1821851;78;21898;-87
2022/06/04 05:52:13;;;;;;;3.25;2.50;;;;;;;29.57;41.50;101259.67;1821766;78;21349;-87
2022/06/04 05:54:40;;;;;;;4.62;2.52;;;;;;;29.80;41.37;101255.30;1821725;78;20856;-90
2022/06/04 05:57:06;;;;;;;2.87;2.67;;;;;;;30.05;40.65;101257.44;1822112;78;20896;-88
2022/06/04 05:59:33;;;;;;;4.12;2.58;;;;;;;30.22;40.28;101251.95;1822081;78;20832;-89
2022/06/04 06:02:01;;;;;;;5.47;2.52;;;;;;;30.33;39.94;101247.83;1822091;78;21090;-87
2022/06/04 06:04:28;;;;;;;5.35;3.25;;;;;;;30.49;39.96;101246.05;1822097;78;20880;-89
2022/06/04 06:06:58;;;;;;;2.87;2.50;;;;;;;30.62;39.63;101247.93;1822541;78;21013;-90
2022/06/04 06:09:24;;;;;;;2.65;2.45;;;;;;;30.75;39.06;101245.20;1822156;78;21420;-90
2022/06/04 06:11:50;;;;;;;3.08;2.77;;;;;;;30.85;39.00;101243.44;1822483;78;20931;-89
2022/06/04 06:14:17;;;;;;;4.47;3.35;;;;;;;30.86;38.47;101241.56;1822177;78;21139;-88
2022/06/04 06:16:47;;;;;;;2.40;2.30;;;;;;;30.92;38.57;101239.36;1821850;78;21023;-88
2022/06/04 06:19:15;;;;;;;3.00;2.80;;;;;;;31.00;38.64;101233.73;1822012;78;20883;-88
2022/06/04 06:21:43;;;;;;;4.00;2.58;;;;;;;31.15;39.04;101236.20;1822098;78;21342;-86
2022/06/04 06:24:10;;;;;;;3.05;2.70;;;;;;;31.35;38.47;101245.08;1822279;78;20982;-86
2022/06/04 06:26:52;;;;;;;3.33;2.83;;;;;;;31.48;38.25;101240.66;1822125;78;21273;-88
2022/06/04 06:29:20;;;;;;;6.12;4.72;;;;;;;31.48;38.01;101236.09;1822281;78;20927;-88
2022/06/04 06:31:47;;;;;;;4.67;4.00;;;;;;;31.64;38.04;101231.20;1822154;78;20915;-89
2022/06/04 06:34:13;;;;;;;3.12;2.92;;;;;;;31.77;37.90;101231.98;1822008;78;20969;-88
2022/06/04 06:36:39;;;;;;;4.72;2.47;;;;;;;31.85;37.22;101221.91;1822048;78;21017;-86
2022/06/04 06:39:07;;;;;;;4.05;2.45;;;;;;;31.93;37.43;101239.30;1822185;78;21298;-88
2022/06/04 06:41:34;;;;;;;4.00;2.75;;;;;;;32.04;37.14;101229.13;1822136;78;20903;-89
2022/06/04 06:44:01;;;;;;;3.12;2.40;;;;;;;32.13;36.98;101235.12;1822156;78;20935;-88
2022/06/04 06:46:31;;;;;;;3.17;2.87;;;;;;;32.23;36.93;101225.11;1822161;78;20908;-88
2022/06/04 06:49:05;;;;;;;5.40;3.47;;;;;;;32.26;36.71;101223.30;1821880;78;20916;-88
2022/06/04 06:51:36;;;;;;;4.65;2.92;;;;;;;32.27;36.48;101224.98;1822463;78;21167;-90
2022/06/04 06:54:03;;;;;;;7.20;5.37;;;;;;;32.35;37.06;101224.19;1822649;78;20918;-88
2022/06/04 06:56:34;;;;;;;6.28;5.80;;;;;;;32.56;36.79;101228.93;1822091;78;20943;-88
2022/06/04 06:59:02;;;;;;;4.70;3.00;;;;;;;32.61;36.46;101228.55;1822091;78;20931;-89
2022/06/04 07:01:31;;;;;;;4.03;2.45;;;;;;;32.75;36.39;101224.34;1822266;78;20935;-90
2022/06/04 07:04:01;;;;;;;4.85;3.40;;;;;;;32.85;36.59;101230.64;1823761;78;21239;-86
2022/06/04 07:06:36;;;;;;;3.12;2.52;;;;;;;33.00;36.07;101229.20;1822824;78;20919;-91
2022/06/04 07:09:07;;;;;;;3.33;2.77;;;;;;;33.13;36.23;101230.98;1822653;78;21370;-89
2022/06/04 07:11:34;;;;;;;3.12;2.67;;;;;;;33.39;36.07;101229.80;1821970;78;20884;-87
2022/06/04 07:14:01;;;;;;;5.55;2.90;;;;;;;33.68;35.90;101234.69;1822021;78;20852;-87
2022/06/04 07:16:28;;;;;;;3.35;2.98;;;;;;;33.86;35.24;101234.63;1822331;78;21155;-89
2022/06/04 07:18:56;;;;;;;3.52;2.52;;;;;;;33.99;35.50;101230.88;1821859;78;20931;-86
2022/06/04 07:21:24;;;;;;;5.05;2.60;;;;;;;34.21;34.92;101225.75;1821971;78;20896;-88
2022/06/04 07:23:50;;;;;;;3.35;2.83;;;;;;;34.37;33.86;101219.59;1821897;78;21397;-89
2022/06/04 07:26:19;;;;;;;3.20;2.90;;;;;;;34.34;34.09;101215.17;1822211;78;20947;-89
2022/06/04 07:28:47;;;;;;;10.08;9.28;;;;;;;34.26;33.79;101217.70;1822084;78;21256;-86
2022/06/04 07:31:13;;;;;;;2.98;2.77;;;;;;;34.07;34.43;101219.67;1821859;78;20923;-90
2022/06/04 07:33:47;;;;;;;4.12;3.02;;;;;;;34.02;34.78;101218.19;1822024;78;20949;-88
2022/06/04 07:36:21;;;;;;;4.05;2.90;;;;;;;34.17;34.69;101215.84;1822154;78;21362;-88
2022/06/04 07:38:47;;;;;;;3.72;2.35;;;;;;;34.36;34.02;101217.14;1822201;78;20966;-88
2022/06/04 07:41:21;;;;;;;2.60;2.00;;;;;;;34.45;34.11;101214.34;1822125;78;22068;-89
2022/06/04 07:43:50;;;;;;;3.52;2.60;;;;;;;34.47;33.99;101215.77;1818904;78;21416;-88
2022/06/04 07:46:16;;;;;;;7.03;2.83;;;;;;;34.63;34.06;101221.06;1822155;78;20966;-88
2022/06/04 07:48:43;;;;;;;3.08;2.87;;;;;;;34.85;33.65;101219.92;1822057;78;20904;-88
2022/06/04 07:51:10;;;;;;;5.75;2.50;;;;;;;35.04;33.51;101221.12;1822351;78;20911;-89
2022/06/04 07:53:37;;;;;;;3.02;1.82;;;;;;;35.27;33.25;101229.28;1824966;77;21232;-89
2022/06/04 07:56:09;;;;;;;2.87;2.33;;;;;;;35.43;32.58;101226.86;1828454;78;20844;-89
2022/06/04 07:58:36;;;;;;;5.42;2.62;;;;;;;35.40;32.37;101217.27;1827869;77;20852;-87
2022/06/04 08:01:04;;;;;;;7.95;6.00;;;;;;;35.27;32.60;101224.37;1827740;77;20955;-83
2022/06/04 08:03:35;;;;;;;4.65;3.98;;;;;;;35.11;32.72;101219.63;1828051;77;20888;-88
2022/06/04 08:06:04;;;;;;;6.05;5.55;;;;;;;34.93;33.19;101212.43;1828084;77;20871;-87
2022/06/04 08:08:36;;;;;;;4.67;4.28;;;;;;;34.90;33.10;101213.75;1827840;77;21164;-87
2022/06/04 08:11:30;;;;;;;3.30;2.33;;;;;;;34.86;33.86;101212.05;1828340;77;20883;-85
2022/06/04 08:13:32;;;;;;;2.47;2.27;;;;;;;34.98;33.36;101213.92;1822800;77;20891;-88
2022/06/04 08:16:00;;;;;;;2.95;2.27;;;;;;;34.92;33.64;101212.98;1828140;77;20962;-88
2022/06/04 08:18:27;;;;;;;2.65;2.00;;;;;;;34.93;32.92;101211.06;1827660;77;21219;-88
2022/06/04 08:20:54;;;;;;;2.65;2.42;;;;;;;34.82;33.46;101210.05;1828344;78;20954;-88
2022/06/04 08:23:21;;;;;;;5.72;3.17;;;;;;;34.88;33.47;101203.11;1828003;78;20931;-88
2022/06/04 08:25:50;;;;;;;5.97;3.50;;;;;;;35.00;32.90;101199.52;1828387;78;20977;-88
2022/06/04 08:28:17;;;;;;;5.47;2.15;;;;;;;35.00;33.55;101205.80;1828364;78;20899;-87
2022/06/04 08:30:44;;;;;;;4.28;2.25;;;;;;;35.06;33.29;101202.63;1828287;78;21184;-89
2022/06/04 08:33:11;;;;;;;2.83;2.10;;;;;;;35.22;33.25;101198.37;1828291;78;20868;-88
2022/06/04 08:35:38;;;;;;;4.35;2.42;;;;;;;35.42;33.12;101196.58;1828491;77;20923;-87
2022/06/04 08:38:06;;;;;;;2.75;2.00;;;;;;;35.57;32.89;101199.56;1828200;78;20880;-87
2022/06/04 08:40:38;;;;;;;3.30;2.10;;;;;;;35.71;32.72;101197.41;1828036;77;20919;-87
2022/06/04 08:43:25;;;;;;;22.98;21.27;;;;;;;35.69;32.00;101193.55;1827894;78;21131;-89
2022/06/04 08:45:52;;;;;;;21.68;20.17;;;;;;;35.53;31.69;101194.84;1827780;78;20860;-86
2022/06/04 08:48:22;;;;;;;43.15;39.85;;;;;;;35.26;31.96;101204.45;1826415;78;20974;-85
2022/06/04 08:50:49;;;;;;;5.17;3.35;;;;;;;35.07;32.52;101198.30;1826043;78;21342;-87
2022/06/04 08:53:24;;;;;;;6.85;2.40;;;;;;;35.01;32.28;101195.17;1825459;78;20887;-87
2022/06/04 08:59:29;;;;;;;3.90;2.40;;;;;;;35.01;31.76;101197.90;1825460;78;20895;-88
2022/06/04 09:02:01;;;;;;;2.12;1.92;;;;;;;34.98;32.21;101192.12;1822393;78;21055;-88
2022/06/04 09:05:17;;;;;;;2.55;2.20;;;;;;;35.10;31.93;101188.81;1825600;78;20974;-86
2022/06/04 09:07:48;;;;;;;3.22;2.70;;;;;;;35.09;32.31;101187.16;1790792;80;20891;-87
2022/06/04 09:10:20;;;;;;;4.17;2.37;;;;;;;34.73;31.62;101180.97;1790734;79;21146;-88
2022/06/04 09:13:15;;;;;;;2.37;2.17;;;;;;;34.43;32.46;101178.34;1790767;80;20935;-89
2022/06/04 09:15:49;;;;;;;5.10;2.08;;;;;;;34.12;33.04;101173.54;1765400;80;20915;-89
2022/06/04 09:18:32;;;;;;;3.65;2.20;;;;;;;34.07;33.66;101180.20;1791039;80;21038;-86
2022/06/04 09:21:01;;;;;;;3.22;2.80;;;;;;;34.06;33.82;101168.48;1790981;80;20936;-85
2022/06/04 09:23:39;;;;;;;3.40;2.83;;;;;;;34.08;33.97;101166.87;1790669;80;22094;-86
2022/06/04 09:26:30;;;;;;;4.42;2.98;;;;;;;34.11;33.01;101161.00;1790399;80;20994;-88
2022/06/04 09:29:31;;;;;;;2.72;2.52;;;;;;;34.16;32.85;101163.84;1790582;80;20907;-86
2022/06/04 09:32:19;;;;;;;16.27;14.85;;;;;;;34.13;32.90;101167.05;1790689;80;21460;-87
2022/06/04 09:34:48;;;;;;;14.90;13.60;;;;;;;34.00;32.91;101169.42;1789685;80;21512;-87
2022/06/04 09:37:14;;;;;;;7.87;7.20;;;;;;;34.00;32.88;101168.05;1790761;80;21257;-85
2022/06/04 09:39:44;;;;;;;2.80;2.60;;;;;;;34.08;33.14;101159.24;1790659;80;21361;-88
2022/06/04 09:42:23;;;;;;;2.87;2.65;;;;;;;34.13;33.21;101160.23;1809530;78;20927;-88
2022/06/04 09:44:58;;;;;;;3.37;1.60;;;;;;;34.10;33.01;101166.11;1825558;78;20931;-88
2022/06/04 09:47:42;;;;;;;2.15;1.70;;;;;;;34.18;33.57;101159.53;1825651;78;20868;-89
2022/06/04 09:50:29;;;;;;;2.67;1.72;;;;;;;34.40;33.18;101160.59;1825859;78;21921;-88
2022/06/04 09:53:03;;;;;;;2.45;2.10;;;;;;;34.64;32.03;101155.98;1796117;78;21061;-88
2022/06/04 09:55:32;;;;;;;5.10;1.50;;;;;;;34.67;31.62;101147.31;1825476;78;21486;-89
2022/06/04 09:58:06;;;;;;;2.45;2.00;;;;;;;34.70;31.61;101144.64;1825730;78;20864;-90
2022/06/04 10:00:35;;;;;;;1.90;1.40;;;;;;;34.84;32.06;101141.11;1826353;78;20817;-89
2022/06/04 10:03:14;;;;;;;14.45;8.35;;;;;;;35.19;31.90;101141.57;1825834;78;21138;-88
2022/06/04 10:06:09;;;;;;;4.08;3.72;;;;;;;35.27;30.64;101139.28;1826932;78;20880;-86
2022/06/04 10:11:35;;;;;;;3.52;2.58;;;;;;;34.95;31.30;101142.15;1825571;78;20903;-87
2022/06/04 10:14:03;;;;;;;4.35;2.33;;;;;;;35.00;31.38;101133.55;1825720;78;20934;-89
2022/06/04 10:16:37;;;;;;;3.65;2.30;;;;;;;35.04;30.25;101132.52;1825317;78;21749;-87
2022/06/04 10:19:19;;;;;;;2.33;2.05;;;;;;;34.95;30.35;101136.70;1825280;78;20899;-86
2022/06/04 10:21:50;;;;;;;2.33;1.77;;;;;;;34.86;29.45;101131.65;1825369;78;20986;-89
2022/06/04 10:24:30;;;;;;;1.62;1.35;;;;;;;34.78;29.75;101133.92;1825561;78;20966;-89
2022/06/04 10:27:40;;;;;;;4.30;1.62;;;;;;;34.75;30.25;101132.51;1825485;78;21459;-89
2022/06/04 10:30:39;;;;;;;1.42;1.32;;;;;;;34.85;30.22;101136.80;1825631;78;21425;-90
2022/06/04 10:33:57;;;;;;;1.50;1.40;;;;;;;34.88;30.11;101124.57;1825515;78;20978;-89
2022/06/04 10:36:51;;;;;;;2.62;1.60;;;;;;;34.96;29.99;101125.56;1825394;78;20864;-88
2022/06/04 10:39:52;;;;;;;1.40;1.30;;;;;;;35.12;29.49;101125.36;1825429;78;20888;-88
2022/06/04 10:42:36;;;;;;;2.62;1.60;;;;;;;35.12;28.95;101123.14;1825408;78;20935;-87
2022/06/04 10:45:26;;;;;;;1.30;1.25;;;;;;;35.20;29.31;101121.42;1825523;78;21232;-87
2022/06/04 10:48:03;;;;;;;1.80;1.50;;;;;;;35.24;29.60;101123.92;1825396;78;21417;-85
2022/06/04 10:54:08;;;;;;;1.47;1.37;;;;;;;34.97;29.78;101106.77;1824707;78;20926;-86
2022/06/04 10:56:46;;;;;;;1.70;1.60;;;;;;;35.01;29.06;101105.75;1822198;78;20911;-91
2022/06/04 10:59:34;;;;;;;5.40;1.67;;;;;;;35.02;29.81;101098.70;1822190;78;21064;-87
2022/06/04 11:02:15;;;;;;;4.28;1.98;;;;;;;35.10;30.13;101102.92;1822892;77;21038;-84
2022/06/04 11:04:56;;;;;;;1.92;1.32;;;;;;;35.07;29.66;101097.97;1824602;77;21044;-87
2022/06/04 11:07:53;;;;;;;1.85;1.27;;;;;;;34.97;29.87;101089.58;1824833;78;20938;-87
2022/06/04 11:10:33;;;;;;;1.92;1.50;;;;;;;34.91;29.70;101091.40;1824609;77;20998;-85
2022/06/04 11:13:22;;;;;;;2.33;1.60;;;;;;;34.74;29.64;101087.78;1824431;77;21134;-88
2022/06/04 11:15:56;;;;;;;2.10;1.30;;;;;;;34.61;30.39;101088.84;1824447;78;20986;-86
2022/06/04 11:18:40;;;;;;;2.12;1.25;;;;;;;34.44;30.48;101081.94;1824962;77;21167;-87
2022/06/04 11:21:27;;;;;;;2.37;1.67;;;;;;;34.18;30.22;101078.67;1824785;77;20864;-87
2022/06/04 11:23:58;;;;;;;4.85;1.35;;;;;;;33.95;30.58;101083.57;1824585;78;20888;-86
2022/06/04 11:26:37;;;;;;;2.42;1.80;;;;;;;33.74;30.54;101080.87;1824625;78;21174;-87
2022/06/04 11:29:04;;;;;;;2.90;1.20;;;;;;;33.56;30.74;101071.42;1817950;78;21437;-87
2022/06/04 11:32:00;;;;;;;2.80;1.45;;;;;;;33.42;31.33;101073.53;1823626;78;20920;-87
2022/06/04 11:35:01;;;;;;;42.25;38.75;;;;;;;33.24;32.08;101068.99;1824325;78;20947;-86
2022/06/04 11:37:32;;;;;;;145.62;132.18;;;;;;;32.89;32.18;101075.62;1825248;78;20809;-88
2022/06/04 11:40:35;;;;;;;6.43;5.63;;;;;;;32.40;32.92;101078.26;1824192;77;21047;-88
2022/06/04 11:43:15;;;;;;;;;;;;;;;32.05;33.38;101068.49;1826706;77;21097;-87
2022/06/04 11:45:53;;;;;;;1.77;1.67;;;;;;;31.80;34.11;101067.95;1823975;77;20101;-87
2022/06/04 11:48:47;;;;;;;3.50;1.92;;;;;;;31.37;34.19;101060.52;1824374;77;20863;-88
2022/06/04 11:51:40;;;;;;;1.90;1.80;;;;;;;31.09;34.89;101064.45;1805667;77;20777;-85
2022/06/04 11:54:48;;;;;;;2.67;2.10;;;;;;;30.91;35.30;101060.30;1825363;78;21105;-86
2022/06/04 11:57:29;;;;;;;3.02;1.87;;;;;;;30.58;35.77;101064.76;1827047;78;20886;-86
2022/06/04 12:00:22;;;;;;;3.62;3.05;;;;;;;30.16;36.22;101065.56;1825766;78;20935;-87
2022/06/04 12:03:15;;;;;;;2.85;2.47;;;;;;;29.94;36.46;101054.67;1825560;78;20923;-87
2022/06/04 12:05:58;;;;;;;2.85;2.42;;;;;;;29.67;37.05;101053.30;1801321;77;20868;-86
2022/06/04 12:08:30;;;;;;;1.98;1.80;;;;;;;29.58;37.51;101046.96;1780603;77;21306;-87
2022/06/04 12:11:05;;;;;;;4.80;2.27;;;;;;;29.51;38.08;101040.20;1797260;77;20986;-86
2022/06/04 12:14:06;;;;;;;4.22;1.98;;;;;;;29.44;38.41;101044.25;1797756;77;21364;-87